Time;durP1;ratioP1;P1;durP2;ratioP2;P2;SDS_P1;SDS_P2;PMS_P1;PMS_P2;Temp;Humidity;BMP_temperature;BMP_pressure;BME280_temperature;BME280_humidity;BME280_pressure;Samples;Min_cycle;Max_cycle;Signal;HPM_P1;HPM_P2
2023/12/01 00:01:49;;;;;;;40.50;19.17;;;;;;;;;;5153508;27;20134;-76
2023/12/01 00:04:15;;;;;;;38.03;18.60;;;;;;;;;;5153448;27;20058;-76
2023/12/01 00:06:42;;;;;;;38.22;18.98;;;;;;;;;;5154245;27;20054;-76
2023/12/01 00:09:08;;;;;;;43.72;18.88;;;;;;;;;;5153226;27;20070;-76
2023/12/01 00:11:34;;;;;;;43.08;19.30;;;;;;;;;;5153468;27;20142;-76
2023/12/01 00:14:01;;;;;;;44.55;18.27;;;;;;;;;;5153358;27;20134;-76
2023/12/01 00:16:27;;;;;;;46.22;19.05;;;;;;;;;;5153289;27;20062;-76
2023/12/01 00:18:53;;;;;;;40.90;18.35;;;;;;;;;;5153030;27;20488;-76
2023/12/01 00:21:20;;;;;;;41.58;18.63;;;;;;;;;;5153211;27;20541;-76
2023/12/01 00:23:46;;;;;;;41.38;17.98;;;;;;;;;;5152570;27;20529;-76
2023/12/01 00:26:12;;;;;;;37.63;18.70;;;;;;;;;;5152829;27;20075;-76
2023/12/01 00:28:39;;;;;;;37.90;17.42;;;;;;;;;;5152920;27;20043;-76
2023/12/01 00:31:05;;;;;;;39.10;16.95;;;;;;;;;;5153641;27;20096;-76
2023/12/01 00:33:32;;;;;;;32.75;14.85;;;;;;;;;;5152921;27;20043;-76
2023/12/01 00:36:00;;;;;;;33.70;15.95;;;;;;;;;;5152076;27;20080;-76
2023/12/01 00:38:26;;;;;;;29.73;14.32;;;;;;;;;;5152556;27;20051;-76
2023/12/01 00:40:53;;;;;;;30.92;15.07;;;;;;;;;;5152807;27;20105;-76
2023/12/01 00:43:19;;;;;;;26.67;13.52;;;;;;;;;;5152731;27;20071;-76
2023/12/01 00:45:45;;;;;;;32.03;14.35;;;;;;;;;;5153023;27;20047;-76
2023/12/01 00:48:12;;;;;;;30.30;15.30;;;;;;;;;;5152782;27;20071;-76
2023/12/01 00:50:39;;;;;;;33.08;15.50;;;;;;;;;;5151524;27;20055;-76
2023/12/01 00:53:05;;;;;;;31.65;14.80;;;;;;;;;;5152622;27;20513;-76
2023/12/01 00:55:32;;;;;;;36.00;15.50;;;;;;;;;;5152676;27;20053;-76
2023/12/01 00:57:58;;;;;;;29.30;14.55;;;;;;;;;;5151300;27;20047;-76
2023/12/01 01:00:24;;;;;;;28.27;14.15;;;;;;;;;;5152581;27;20048;-76
2023/12/01 01:02:51;;;;;;;28.38;14.10;;;;;;;;;;5152777;27;20339;-76
2023/12/01 01:05:17;;;;;;;29.55;14.20;;;;;;;;;;5151977;27;20077;-76
2023/12/01 01:07:44;;;;;;;28.33;13.70;;;;;;;;;;5152135;27;20051;-76
2023/12/01 01:10:10;;;;;;;29.30;14.85;;;;;;;;;;5152522;27;20661;-76
2023/12/01 01:12:36;;;;;;;30.35;14.82;;;;;;;;;;5152622;27;20047;-76
2023/12/01 01:15:03;;;;;;;29.02;13.30;;;;;;;;;;5152694;27;20051;-76
2023/12/01 01:17:31;;;;;;;30.30;13.73;;;;;;;;;;5152705;27;20059;-76
2023/12/01 01:19:58;;;;;;;30.80;14.57;;;;;;;;;;5151968;27;20048;-76
2023/12/01 01:22:25;;;;;;;28.48;14.13;;;;;;;;;;5152323;27;21300;-76
2023/12/01 01:24:52;;;;;;;31.73;14.15;;;;;;;;;;5152298;27;20123;-76
2023/12/01 01:27:18;;;;;;;28.35;13.65;;;;;;;;;;5152399;27;20051;-76
2023/12/01 01:29:45;;;;;;;26.38;13.48;;;;;;;;;;5152555;27;20058;-76
2023/12/01 01:32:11;;;;;;;34.03;14.95;;;;;;;;;;5152404;27;20055;-76
2023/12/01 01:34:38;;;;;;;27.17;12.60;;;;;;;;;;5151860;27;20047;-76
2023/12/01 01:37:05;;;;;;;33.78;14.13;;;;;;;;;;5151930;27;20066;-76
2023/12/01 01:39:32;;;;;;;30.98;14.45;;;;;;;;;;5157396;27;20043;-76
2023/12/01 01:41:58;;;;;;;29.13;14.50;;;;;;;;;;5160512;27;20062;-76
2023/12/01 01:44:25;;;;;;;27.58;13.82;;;;;;;;;;5156626;27;20051;-76
2023/12/01 01:46:52;;;;;;;25.38;13.07;;;;;;;;;;5156096;27;20547;-76
2023/12/01 01:49:20;;;;;;;30.95;14.25;;;;;;;;;;5154897;27;20053;-76
2023/12/01 01:51:46;;;;;;;31.23;12.80;;;;;;;;;;5155872;27;20058;-76
2023/12/01 01:54:13;;;;;;;32.10;13.25;;;;;;;;;;5155425;27;20498;-76
2023/12/01 01:56:39;;;;;;;29.27;13.13;;;;;;;;;;5155777;27;20051;-76
2023/12/01 01:59:05;;;;;;;28.30;13.07;;;;;;;;;;5155533;27;20109;-76
2023/12/01 02:01:32;;;;;;;29.15;13.30;;;;;;;;;;5155528;27;20104;-76
2023/12/01 02:03:58;;;;;;;34.33;14.65;;;;;;;;;;5154578;27;20051;-76
2023/12/01 02:06:30;;;;;;;29.15;13.98;;;;;;;;;;5155408;27;20054;-76
2023/12/01 02:08:58;;;;;;;28.75;12.65;;;;;;;;;;5155370;27;20488;-76
2023/12/01 02:11:25;;;;;;;28.58;13.73;;;;;;;;;;5155475;27;20051;-76
2023/12/01 02:13:52;;;;;;;28.20;13.00;;;;;;;;;;5155182;27;20134;-76
2023/12/01 02:16:18;;;;;;;33.33;14.18;;;;;;;;;;5153684;27;20057;-76
2023/12/01 02:18:45;;;;;;;29.25;13.63;;;;;;;;;;5154944;27;20055;-76
2023/12/01 02:21:11;;;;;;;30.95;14.38;;;;;;;;;;5155118;27;20094;-76
2023/12/01 02:23:37;;;;;;;30.60;13.02;;;;;;;;;;5154999;27;20104;-76
2023/12/01 02:26:04;;;;;;;33.50;14.15;;;;;;;;;;5154772;27;20055;-76
2023/12/01 02:28:31;;;;;;;30.42;13.38;;;;;;;;;;5154946;27;20488;-76
2023/12/01 02:30:57;;;;;;;32.05;14.98;;;;;;;;;;5155023;27;20167;-76
2023/12/01 02:33:23;;;;;;;31.38;13.88;;;;;;;;;;5154449;27;20149;-76
2023/12/01 02:35:51;;;;;;;35.92;15.50;;;;;;;;;;5154513;27;20469;-76
2023/12/01 02:38:18;;;;;;;34.90;15.95;;;;;;;;;;5155008;27;20057;-76
2023/12/01 02:40:49;;;;;;;33.53;14.52;;;;;;;;;;5155790;27;20078;-76
2023/12/01 02:43:18;;;;;;;32.13;14.07;;;;;;;;;;5155058;27;20112;-76
2023/12/01 02:45:45;;;;;;;34.97;14.13;;;;;;;;;;5154763;27;20519;-76
2023/12/01 02:48:11;;;;;;;36.30;15.18;;;;;;;;;;5154455;27;20058;-76
2023/12/01 02:50:38;;;;;;;35.70;15.52;;;;;;;;;;5154697;27;20051;-76
2023/12/01 02:53:05;;;;;;;31.73;14.75;;;;;;;;;;5155363;27;20138;-76
2023/12/01 02:55:31;;;;;;;35.00;15.73;;;;;;;;;;5154813;27;20047;-76
2023/12/01 02:57:58;;;;;;;42.17;15.73;;;;;;;;;;5154510;27;20074;-76
2023/12/01 03:00:24;;;;;;;36.95;16.35;;;;;;;;;;5154387;27;20051;-76
2023/12/01 03:02:51;;;;;;;44.15;16.60;;;;;;;;;;5154704;27;20082;-76
2023/12/01 03:05:18;;;;;;;35.50;15.02;;;;;;;;;;5154316;27;20044;-76
2023/12/01 03:07:44;;;;;;;41.30;17.05;;;;;;;;;;5154373;27;20487;-76
2023/12/01 03:10:11;;;;;;;43.10;16.92;;;;;;;;;;5154450;27;20058;-75
2023/12/01 03:12:38;;;;;;;36.60;16.33;;;;;;;;;;5154105;27;20047;-76
2023/12/01 03:15:07;;;;;;;43.90;17.02;;;;;;;;;;5154327;27;20055;-76
2023/12/01 03:17:37;;;;;;;41.60;17.23;;;;;;;;;;5154072;27;20055;-76
2023/12/01 03:20:10;;;;;;;44.00;18.08;;;;;;;;;;5154394;27;20504;-76
2023/12/01 03:22:38;;;;;;;45.50;18.77;;;;;;;;;;5154955;27;20055;-76
2023/12/01 03:25:09;;;;;;;45.13;18.45;;;;;;;;;;5153581;27;20555;-76
2023/12/01 03:27:42;;;;;;;45.97;17.55;;;;;;;;;;5154270;27;20094;-76
2023/12/01 03:30:13;;;;;;;43.38;17.98;;;;;;;;;;5154999;27;20112;-76
2023/12/01 03:32:44;;;;;;;44.83;17.25;;;;;;;;;;5153983;27;20047;-76
2023/12/01 03:35:12;;;;;;;42.28;18.92;;;;;;;;;;5154884;27;20047;-76
2023/12/01 03:37:38;;;;;;;42.35;17.77;;;;;;;;;;5153837;27;20664;-76
2023/12/01 03:40:08;;;;;;;46.42;17.67;;;;;;;;;;5154040;27;20047;-76
2023/12/01 03:42:38;;;;;;;44.70;17.67;;;;;;;;;;5153718;27;20514;-75
2023/12/01 03:45:06;;;;;;;41.28;16.55;;;;;;;;;;5153679;27;20059;-76
2023/12/01 03:47:34;;;;;;;52.28;19.30;;;;;;;;;;5153744;27;20439;-76
2023/12/01 03:50:01;;;;;;;37.03;16.92;;;;;;;;;;5154026;27;20051;-76
2023/12/01 03:52:27;;;;;;;40.90;16.98;;;;;;;;;;5153761;27;20530;-76
2023/12/01 03:54:53;;;;;;;41.97;17.83;;;;;;;;;;5153595;27;20086;-76
2023/12/01 03:57:20;;;;;;;42.58;18.10;;;;;;;;;;5153712;27;20520;-76
2023/12/01 03:59:46;;;;;;;42.55;17.42;;;;;;;;;;5153128;27;20057;-76
2023/12/01 04:02:12;;;;;;;38.70;16.67;;;;;;;;;;5152946;27;20051;-76
2023/12/01 04:04:39;;;;;;;46.17;18.25;;;;;;;;;;5153393;27;20066;-76
2023/12/01 04:07:07;;;;;;;43.78;17.65;;;;;;;;;;5153928;27;20039;-76
2023/12/01 04:09:34;;;;;;;42.67;17.63;;;;;;;;;;5153486;27;20047;-75
2023/12/01 04:12:00;;;;;;;40.35;17.42;;;;;;;;;;5153437;27;20113;-76
2023/12/01 04:14:27;;;;;;;43.65;16.77;;;;;;;;;;5153011;27;20553;-76
2023/12/01 04:16:54;;;;;;;39.38;17.20;;;;;;;;;;5157123;27;20051;-76
2023/12/01 04:19:20;;;;;;;38.45;17.27;;;;;;;;;;5156739;27;20052;-76
2023/12/01 04:21:47;;;;;;;41.28;18.27;;;;;;;;;;5153569;27;20051;-76
2023/12/01 04:24:13;;;;;;;38.67;17.23;;;;;;;;;;5153213;27;20058;-76
2023/12/01 04:26:39;;;;;;;37.97;17.45;;;;;;;;;;5153060;27;20047;-76
2023/12/01 04:29:05;;;;;;;44.03;19.02;;;;;;;;;;5153094;27;20051;-76
2023/12/01 04:31:32;;;;;;;36.75;17.67;;;;;;;;;;5153156;27;20212;-76
2023/12/01 04:33:58;;;;;;;42.08;18.38;;;;;;;;;;5152851;27;20051;-76
2023/12/01 04:36:25;;;;;;;43.95;18.15;;;;;;;;;;5152351;27;20134;-76
2023/12/01 04:38:51;;;;;;;35.22;16.00;;;;;;;;;;5152988;27;20043;-76
2023/12/01 04:41:17;;;;;;;40.38;17.42;;;;;;;;;;5152986;27;20057;-76
2023/12/01 04:43:43;;;;;;;38.13;17.13;;;;;;;;;;5152477;27;20051;-76
2023/12/01 04:46:10;;;;;;;36.90;17.20;;;;;;;;;;5152695;27;20566;-76
2023/12/01 04:48:36;;;;;;;38.58;17.75;;;;;;;;;;5152864;27;20496;-76
2023/12/01 04:51:03;;;;;;;34.63;16.33;;;;;;;;;;5153241;27;20090;-76
2023/12/01 04:53:29;;;;;;;37.00;17.00;;;;;;;;;;5152733;27;20523;-76
2023/12/01 04:55:55;;;;;;;39.60;18.20;;;;;;;;;;5152859;27;20496;-76
2023/12/01 04:58:22;;;;;;;38.45;17.45;;;;;;;;;;5152270;27;20043;-76
2023/12/01 05:00:48;;;;;;;40.00;17.65;;;;;;;;;;5152813;27;20051;-76
2023/12/01 05:03:14;;;;;;;45.05;18.45;;;;;;;;;;5152640;27;20523;-76
2023/12/01 05:05:41;;;;;;;34.30;15.95;;;;;;;;;;5152700;27;20047;-76
2023/12/01 05:08:09;;;;;;;38.60;18.27;;;;;;;;;;5152831;27;20496;-76
2023/12/01 05:10:36;;;;;;;36.72;16.60;;;;;;;;;;5152733;27;20134;-76
2023/12/01 05:13:04;;;;;;;39.17;17.27;;;;;;;;;;5152923;27;20102;-76
2023/12/01 05:15:32;;;;;;;38.10;16.38;;;;;;;;;;5156257;27;20564;-76
2023/12/01 05:17:59;;;;;;;37.25;15.82;;;;;;;;;;5156070;27;20540;-76
2023/12/01 05:20:27;;;;;;;36.78;17.02;;;;;;;;;;5156398;27;20134;-76
2023/12/01 05:22:58;;;;;;;38.35;16.33;;;;;;;;;;5156177;27;20075;-76
2023/12/01 05:25:25;;;;;;;39.70;17.25;;;;;;;;;;5155868;27;20503;-76
2023/12/01 05:27:53;;;;;;;34.20;16.90;;;;;;;;;;5156067;27;20100;-76
2023/12/01 05:30:21;;;;;;;41.97;18.15;;;;;;;;;;5156091;27;20061;-76
2023/12/01 05:32:48;;;;;;;37.78;16.58;;;;;;;;;;5156465;27;20047;-76
2023/12/01 05:35:15;;;;;;;35.53;15.90;;;;;;;;;;5156197;27;20521;-76
2023/12/01 05:37:47;;;;;;;39.42;16.85;;;;;;;;;;5155981;27;20084;-76
2023/12/01 05:40:14;;;;;;;39.88;16.15;;;;;;;;;;5156420;27;20055;-76
2023/12/01 05:42:42;;;;;;;40.60;16.98;;;;;;;;;;5155474;27;20061;-76
2023/12/01 05:45:11;;;;;;;40.78;17.25;;;;;;;;;;5155623;27;20052;-76
2023/12/01 05:47:42;;;;;;;40.78;15.98;;;;;;;;;;5155771;27;20047;-76
2023/12/01 05:50:12;;;;;;;35.33;16.20;;;;;;;;;;5155951;27;20055;-76
2023/12/01 05:52:40;;;;;;;38.28;16.55;;;;;;;;;;5155582;27;20051;-76
2023/12/01 05:55:10;;;;;;;39.13;17.05;;;;;;;;;;5156041;27;20146;-76
2023/12/01 05:57:37;;;;;;;35.90;16.80;;;;;;;;;;5155148;27;20135;-75
2023/12/01 06:00:04;;;;;;;38.92;16.98;;;;;;;;;;5155488;27;20047;-76
2023/12/01 06:02:30;;;;;;;41.72;17.02;;;;;;;;;;5155693;27;20057;-76
2023/12/01 06:04:59;;;;;;;36.70;17.05;;;;;;;;;;5155444;27;20136;-76
2023/12/01 06:07:25;;;;;;;41.15;17.90;;;;;;;;;;5155519;27;20058;-76
2023/12/01 06:09:51;;;;;;;37.50;15.70;;;;;;;;;;5154971;27;20188;-76
2023/12/01 06:12:18;;;;;;;38.50;17.60;;;;;;;;;;5155213;27;20111;-76
2023/12/01 06:14:45;;;;;;;39.47;17.27;;;;;;;;;;5155469;27;20793;-76
2023/12/01 06:17:11;;;;;;;43.85;17.85;;;;;;;;;;5155610;27;20560;-76
2023/12/01 06:19:38;;;;;;;40.70;17.20;;;;;;;;;;5155324;27;20552;-76
2023/12/01 06:22:04;;;;;;;43.13;17.77;;;;;;;;;;5155049;27;20520;-76
2023/12/01 06:24:33;;;;;;;36.80;16.23;;;;;;;;;;5154306;27;20531;-76
2023/12/01 06:27:03;;;;;;;40.17;16.85;;;;;;;;;;5154967;27;20116;-77
2023/12/01 06:29:30;;;;;;;46.55;18.33;;;;;;;;;;5155282;27;20112;-76
2023/12/01 06:31:57;;;;;;;40.90;17.98;;;;;;;;;;5154945;27;20116;-75
2023/12/01 06:34:23;;;;;;;42.78;17.33;;;;;;;;;;5154940;27;20055;-75
2023/12/01 06:36:49;;;;;;;39.35;15.75;;;;;;;;;;5154321;27;20059;-74
2023/12/01 06:39:16;;;;;;;43.58;17.35;;;;;;;;;;5154745;27;20081;-75
2023/12/01 06:41:42;;;;;;;38.75;17.08;;;;;;;;;;5154784;27;20062;-77
2023/12/01 06:44:09;;;;;;;38.90;15.93;;;;;;;;;;5154742;27;20611;-76
2023/12/01 06:46:36;;;;;;;35.25;15.80;;;;;;;;;;5154658;27;20051;-76
2023/12/01 06:49:02;;;;;;;43.60;16.65;;;;;;;;;;5154684;27;20051;-76
2023/12/01 06:51:28;;;;;;;41.03;15.88;;;;;;;;;;5154432;27;20051;-76
2023/12/01 06:53:56;;;;;;;34.20;16.45;;;;;;;;;;5157105;27;20050;-75
2023/12/01 06:56:23;;;;;;;40.00;17.42;;;;;;;;;;5158014;27;20130;-76
2023/12/01 06:58:49;;;;;;;40.08;16.05;;;;;;;;;;5154555;27;20138;-76
2023/12/01 07:01:18;;;;;;;36.15;15.75;;;;;;;;;;5154962;27;20499;-76
2023/12/01 07:03:45;;;;;;;34.38;13.95;;;;;;;;;;5154492;27;20053;-76
2023/12/01 07:06:12;;;;;;;39.05;16.35;;;;;;;;;;5154158;27;20565;-76
2023/12/01 07:08:40;;;;;;;36.67;14.65;;;;;;;;;;5153827;27;20553;-76
2023/12/01 07:11:09;;;;;;;34.85;14.63;;;;;;;;;;5154255;27;20071;-76
2023/12/01 07:13:35;;;;;;;31.10;13.45;;;;;;;;;;5154212;27;20130;-76
2023/12/01 07:16:09;;;;;;;32.38;13.73;;;;;;;;;;5154276;27;20047;-76
2023/12/01 07:18:38;;;;;;;36.95;14.93;;;;;;;;;;5154198;27;20071;-76
2023/12/01 07:21:06;;;;;;;31.90;14.55;;;;;;;;;;5154087;27;20051;-76
2023/12/01 07:23:34;;;;;;;29.50;14.95;;;;;;;;;;5154034;27;20084;-76
2023/12/01 07:26:00;;;;;;;32.67;13.38;;;;;;;;;;5154070;27;20055;-76
2023/12/01 07:28:27;;;;;;;27.20;12.63;;;;;;;;;;5154184;27;20156;-75
2023/12/01 07:30:53;;;;;;;30.38;12.02;;;;;;;;;;5153775;27;20044;-75
2023/12/01 07:33:20;;;;;;;26.90;12.70;;;;;;;;;;5153774;27;20188;-76
2023/12/01 07:35:46;;;;;;;32.92;12.57;;;;;;;;;;5152532;27;20058;-76
2023/12/01 07:38:12;;;;;;;28.80;13.18;;;;;;;;;;5153400;27;20615;-76
2023/12/01 07:40:39;;;;;;;37.95;14.27;;;;;;;;;;5153826;27;20117;-76
2023/12/01 07:43:05;;;;;;;25.23;11.93;;;;;;;;;;5154064;27;20482;-75
2023/12/01 07:45:32;;;;;;;25.20;11.27;;;;;;;;;;5153598;27;20062;-76
2023/12/01 07:47:58;;;;;;;27.50;12.27;;;;;;;;;;5153640;27;20130;-76
2023/12/01 07:50:25;;;;;;;26.10;11.15;;;;;;;;;;5153743;27;20154;-75
2023/12/01 07:52:53;;;;;;;26.23;11.75;;;;;;;;;;5153356;27;20051;-76
2023/12/01 07:55:20;;;;;;;21.60;11.07;;;;;;;;;;5153445;27;20055;-76
2023/12/01 07:57:47;;;;;;;25.98;11.55;;;;;;;;;;5153614;27;20125;-76
2023/12/01 08:00:16;;;;;;;30.20;12.02;;;;;;;;;;5153107;27;20492;-76
2023/12/01 08:02:44;;;;;;;29.08;12.07;;;;;;;;;;5153337;27;20055;-76
2023/12/01 08:05:14;;;;;;;24.15;10.93;;;;;;;;;;5153749;27;20123;-76
2023/12/01 08:07:41;;;;;;;26.45;11.40;;;;;;;;;;5153284;27;20051;-76
2023/12/01 08:10:08;;;;;;;23.75;11.18;;;;;;;;;;5153266;27;20047;-76
2023/12/01 08:12:34;;;;;;;28.50;11.20;;;;;;;;;;5152999;27;20051;-76
2023/12/01 08:15:01;;;;;;;30.52;12.38;;;;;;;;;;5153340;27;20500;-76
2023/12/01 08:17:27;;;;;;;28.55;11.25;;;;;;;;;;5153124;27;20472;-76
2023/12/01 08:19:53;;;;;;;23.33;9.98;;;;;;;;;;5153070;27;20058;-76
2023/12/01 08:22:20;;;;;;;27.98;10.95;;;;;;;;;;5152951;27;20567;-76
2023/12/01 08:24:46;;;;;;;24.02;9.65;;;;;;;;;;5152997;27;20074;-76
2023/12/01 08:27:13;;;;;;;25.98;10.75;;;;;;;;;;5153306;27;20130;-76
2023/12/01 08:29:39;;;;;;;25.98;10.75;;;;;;;;;;5153232;27;20043;-76
2023/12/01 08:32:06;;;;;;;25.52;10.55;;;;;;;;;;5153008;27;20534;-75
2023/12/01 08:34:32;;;;;;;28.08;11.10;;;;;;;;;;5152984;27;20103;-76
2023/12/01 08:36:59;;;;;;;24.75;10.63;;;;;;;;;;5151637;27;20579;-76
2023/12/01 08:39:25;;;;;;;26.60;11.40;;;;;;;;;;5151668;27;20055;-76
2023/12/01 08:41:53;;;;;;;26.40;10.75;;;;;;;;;;5152724;27;20054;-75
2023/12/01 08:44:20;;;;;;;28.27;10.68;;;;;;;;;;5152727;27;20052;-76
2023/12/01 08:46:46;;;;;;;23.08;10.07;;;;;;;;;;5152791;27;20051;-75
2023/12/01 08:49:12;;;;;;;28.70;10.80;;;;;;;;;;5156785;27;20082;-75
2023/12/01 08:51:39;;;;;;;20.63;9.57;;;;;;;;;;5155942;27;20491;-76
2023/12/01 08:54:05;;;;;;;23.08;10.93;;;;;;;;;;5156313;27;20051;-76
2023/12/01 08:56:33;;;;;;;26.80;12.13;;;;;;;;;;5156340;27;20054;-76
2023/12/01 08:59:00;;;;;;;27.13;11.75;;;;;;;;;;5156316;27;20140;-76
2023/12/01 09:01:26;;;;;;;25.88;10.35;;;;;;;;;;5156572;27;20055;-75
2023/12/01 09:03:53;;;;;;;21.92;10.07;;;;;;;;;;5155839;27;20051;-76
2023/12/01 09:06:19;;;;;;;20.45;8.90;;;;;;;;;;5156163;27;20054;-75
2023/12/01 09:08:46;;;;;;;23.80;10.45;;;;;;;;;;5156380;27;20416;-75
2023/12/01 09:11:12;;;;;;;26.77;10.55;;;;;;;;;;5156641;27;20054;-75
2023/12/01 09:13:39;;;;;;;22.17;9.38;;;;;;;;;;5156205;27;20495;-76
2023/12/01 09:16:06;;;;;;;37.70;11.10;;;;;;;;;;5156051;27;20165;-75
2023/12/01 09:18:32;;;;;;;20.30;9.48;;;;;;;;;;5155721;27;20130;-75
2023/12/01 09:20:59;;;;;;;26.02;10.98;;;;;;;;;;5156006;27;20058;-75
2023/12/01 09:23:26;;;;;;;22.75;9.27;;;;;;;;;;5156144;27;20525;-76
2023/12/01 09:25:52;;;;;;;25.33;10.70;;;;;;;;;;5156090;27;20051;-76
2023/12/01 09:28:19;;;;;;;24.17;9.70;;;;;;;;;;5158523;27;20051;-77
2023/12/01 09:30:45;;;;;;;26.55;10.20;;;;;;;;;;5157735;27;20509;-76
2023/12/01 09:33:11;;;;;;;25.52;10.20;;;;;;;;;;5156460;27;20143;-76
2023/12/01 09:35:38;;;;;;;21.60;9.63;;;;;;;;;;5155586;27;20051;-76
2023/12/01 09:38:24;;;;;;;22.58;9.00;;;;;;;;;;5155857;27;20047;-76
2023/12/01 09:40:51;;;;;;;24.55;9.63;;;;;;;;;;5155920;27;20055;-76
2023/12/01 09:43:17;;;;;;;20.33;9.57;;;;;;;;;;5155636;27;20038;-75
2023/12/01 09:45:44;;;;;;;17.33;8.80;;;;;;;;;;5155495;27;20061;-75
2023/12/01 09:48:13;;;;;;;22.10;9.27;;;;;;;;;;5155401;27;20054;-76
2023/12/01 09:50:40;;;;;;;21.05;9.38;;;;;;;;;;5155545;27;20051;-76
2023/12/01 09:53:07;;;;;;;19.05;8.73;;;;;;;;;;5156211;27;20074;-75
2023/12/01 09:55:33;;;;;;;22.80;9.32;;;;;;;;;;5155544;27;20051;-76
2023/12/01 09:58:00;;;;;;;22.02;9.10;;;;;;;;;;5155474;27;20055;-75
2023/12/01 10:00:26;;;;;;;19.52;8.73;;;;;;;;;;5154946;27;20551;-75
2023/12/01 10:02:52;;;;;;;20.02;8.93;;;;;;;;;;5154989;27;20074;-75
2023/12/01 10:05:19;;;;;;;20.40;9.52;;;;;;;;;;5155358;27;20054;-75
2023/12/01 10:07:48;;;;;;;18.63;9.68;;;;;;;;;;5155581;27;20090;-75
2023/12/01 10:10:19;;;;;;;21.55;9.52;;;;;;;;;;5155235;27;20100;-76
2023/12/01 10:13:04;;;;;;;20.75;8.85;;;;;;;;;;5155493;27;20098;-76
2023/12/01 10:15:32;;;;;;;18.17;8.85;;;;;;;;;;5155567;27;20058;-76
2023/12/01 10:18:12;;;;;;;20.55;9.10;;;;;;;;;;5154690;27;20135;-76
2023/12/01 10:21:03;;;;;;;22.98;9.65;;;;;;;;;;5155197;27;20055;-76
2023/12/01 10:23:33;;;;;;;18.38;8.80;;;;;;;;;;5154048;27;20138;-76
2023/12/01 10:26:03;;;;;;;21.42;9.10;;;;;;;;;;5154595;27;20428;-76
2023/12/01 10:28:38;;;;;;;17.35;9.10;;;;;;;;;;5155106;27;20102;-75
2023/12/01 10:31:05;;;;;;;20.02;8.85;;;;;;;;;;5154450;27;20081;-76
2023/12/01 10:33:31;;;;;;;21.42;8.43;;;;;;;;;;5155062;27;20571;-76
2023/12/01 10:35:59;;;;;;;19.02;8.77;;;;;;;;;;5154624;27;20169;-75
2023/12/01 10:38:25;;;;;;;23.80;9.80;;;;;;;;;;5155412;27;20039;-75
2023/12/01 10:40:53;;;;;;;18.98;8.98;;;;;;;;;;5154954;27;20051;-75
2023/12/01 10:43:20;;;;;;;20.73;9.07;;;;;;;;;;5154780;27;20449;-75
2023/12/01 10:45:47;;;;;;;20.92;9.00;;;;;;;;;;5154506;27;20659;-75
2023/12/01 10:48:14;;;;;;;20.55;8.77;;;;;;;;;;5154739;27;20055;-75
2023/12/01 10:50:42;;;;;;;21.38;9.65;;;;;;;;;;5154772;27;20511;-76
2023/12/01 10:53:09;;;;;;;20.50;8.90;;;;;;;;;;5154562;27;20051;-76
2023/12/01 10:55:35;;;;;;;19.45;9.68;;;;;;;;;;5154844;27;20104;-76
2023/12/01 10:58:05;;;;;;;20.58;8.77;;;;;;;;;;5154573;27;20150;-75
2023/12/01 11:00:32;;;;;;;18.40;8.82;;;;;;;;;;5154697;27;20492;-76
2023/12/01 11:03:03;;;;;;;17.75;8.70;;;;;;;;;;5155602;27;20058;-75
2023/12/01 11:05:32;;;;;;;21.10;8.45;;;;;;;;;;5154389;27;20134;-75
2023/12/01 11:08:05;;;;;;;19.27;8.55;;;;;;;;;;5154463;27;20055;-76
2023/12/01 11:10:55;;;;;;;18.88;9.25;;;;;;;;;;5153700;27;20061;-76
2023/12/01 11:13:35;;;;;;;18.73;8.00;;;;;;;;;;5154418;27;20047;-75
2023/12/01 11:16:02;;;;;;;18.25;8.32;;;;;;;;;;5154540;27;20204;-75
2023/12/01 11:18:28;;;;;;;19.40;9.45;;;;;;;;;;5154322;27;20073;-75
2023/12/01 11:20:55;;;;;;;18.75;8.93;;;;;;;;;;5154183;27;20432;-76
2023/12/01 11:23:23;;;;;;;18.33;9.20;;;;;;;;;;5154702;27;20065;-75
2023/12/01 11:26:05;;;;;;;20.27;8.90;;;;;;;;;;5154233;27;20054;-75
2023/12/01 11:28:43;;;;;;;20.10;9.25;;;;;;;;;;5154271;27;20055;-75
2023/12/01 11:31:15;;;;;;;17.45;8.57;;;;;;;;;;5153763;27;20576;-75
2023/12/01 11:33:47;;;;;;;18.48;8.70;;;;;;;;;;5154139;27;20051;-75
2023/12/01 11:36:21;;;;;;;17.52;8.73;;;;;;;;;;5153476;27;20063;-75
2023/12/01 11:39:23;;;;;;;18.13;8.60;;;;;;;;;;5153908;27;20473;-76
2023/12/01 11:41:53;;;;;;;18.05;8.65;;;;;;;;;;5154066;27;20513;-76
2023/12/01 11:44:24;;;;;;;18.33;9.00;;;;;;;;;;5153354;27;20504;-76
2023/12/01 11:46:55;;;;;;;15.27;7.85;;;;;;;;;;5154184;27;20094;-76
2023/12/01 11:49:25;;;;;;;13.07;7.28;;;;;;;;;;5153638;27;20108;-75
2023/12/01 11:51:53;;;;;;;22.85;9.95;;;;;;;;;;5153775;27;20051;-76
2023/12/01 11:54:19;;;;;;;18.75;8.77;;;;;;;;;;5154265;27;20055;-76
2023/12/01 11:56:53;;;;;;;22.00;9.50;;;;;;;;;;5156093;27;20130;-74
2023/12/01 11:59:19;;;;;;;18.98;8.23;;;;;;;;;;5153796;27;20051;-75
2023/12/01 12:01:46;;;;;;;18.10;9.13;;;;;;;;;;5153915;27;20126;-76
2023/12/01 12:04:16;;;;;;;20.95;9.07;;;;;;;;;;5153733;27;20155;-76
2023/12/01 12:06:44;;;;;;;17.65;8.02;;;;;;;;;;5153890;27;20051;-76
2023/12/01 12:09:17;;;;;;;16.92;8.60;;;;;;;;;;5153777;27;20108;-76
2023/12/01 12:11:45;;;;;;;16.20;9.02;;;;;;;;;;5153339;27;20436;-76
2023/12/01 12:14:12;;;;;;;16.73;7.82;;;;;;;;;;5152826;27;20062;-75
2023/12/01 12:16:38;;;;;;;15.05;7.60;;;;;;;;;;5153294;27;20051;-75
2023/12/01 12:19:05;;;;;;;17.02;8.48;;;;;;;;;;5152037;27;20575;-75
2023/12/01 12:21:33;;;;;;;14.10;7.85;;;;;;;;;;5153319;27;20561;-76
2023/12/01 12:23:59;;;;;;;18.60;9.32;;;;;;;;;;5152819;27;20081;-76
2023/12/01 12:26:27;;;;;;;15.90;8.27;;;;;;;;;;5153099;27;20592;-75
2023/12/01 12:28:57;;;;;;;16.10;8.00;;;;;;;;;;5152813;27;20104;-75
2023/12/01 12:31:25;;;;;;;18.10;9.32;;;;;;;;;;5153118;27;20294;-75
2023/12/01 12:33:52;;;;;;;17.08;8.30;;;;;;;;;;5153169;27;20109;-76
2023/12/01 12:36:19;;;;;;;18.05;8.38;;;;;;;;;;5152222;27;20059;-76
2023/12/01 12:38:48;;;;;;;17.30;8.52;;;;;;;;;;5153156;27;20047;-76
2023/12/01 12:41:25;;;;;;;17.85;8.50;;;;;;;;;;5153147;27;20061;-76
2023/12/01 12:43:55;;;;;;;17.45;8.77;;;;;;;;;;5151906;27;20508;-75
2023/12/01 12:46:22;;;;;;;17.33;8.95;;;;;;;;;;5152990;27;20047;-76
2023/12/01 12:48:50;;;;;;;17.98;7.97;;;;;;;;;;5152833;27;20074;-76
2023/12/01 12:51:17;;;;;;;16.38;9.20;;;;;;;;;;5153220;27;20569;-76
2023/12/01 12:53:47;;;;;;;17.33;8.60;;;;;;;;;;5152847;27;20104;-76
2023/12/01 12:56:14;;;;;;;15.85;7.97;;;;;;;;;;5152514;27;20062;-76
2023/12/01 12:58:42;;;;;;;16.60;8.10;;;;;;;;;;5151557;27;20052;-76
2023/12/01 13:01:09;;;;;;;16.20;8.38;;;;;;;;;;5152638;27;20055;-76
2023/12/01 13:03:36;;;;;;;18.77;8.00;;;;;;;;;;5152840;27;20047;-76
2023/12/01 13:06:06;;;;;;;17.27;7.55;;;;;;;;;;5152505;27;20043;-75
2023/12/01 13:08:33;;;;;;;16.75;8.50;;;;;;;;;;5152322;27;20502;-76
2023/12/01 13:11:00;;;;;;;13.55;7.35;;;;;;;;;;5152023;27;20074;-76
2023/12/01 13:13:27;;;;;;;15.20;7.55;;;;;;;;;;5152891;27;20047;-76
2023/12/01 13:15:53;;;;;;;15.48;8.55;;;;;;;;;;5152683;27;20052;-75
2023/12/01 13:18:21;;;;;;;17.85;8.75;;;;;;;;;;5152339;27;20584;-76
2023/12/01 13:20:48;;;;;;;15.73;8.35;;;;;;;;;;5152441;27;20058;-75
2023/12/01 13:23:17;;;;;;;20.98;8.38;;;;;;;;;;5152361;27;20455;-76
2023/12/01 13:25:44;;;;;;;18.80;8.60;;;;;;;;;;5151946;27;20047;-76
2023/12/01 13:28:13;;;;;;;16.55;8.45;;;;;;;;;;5152429;27;20556;-76
2023/12/01 13:30:40;;;;;;;16.60;8.25;;;;;;;;;;5152266;27;20055;-75
2023/12/01 13:33:06;;;;;;;18.05;9.07;;;;;;;;;;5152252;27;20059;-76
2023/12/01 13:35:33;;;;;;;17.33;9.00;;;;;;;;;;5153732;27;20108;-76
2023/12/01 13:38:03;;;;;;;17.20;8.32;;;;;;;;;;5155687;27;20051;-76
2023/12/01 13:40:29;;;;;;;19.70;8.55;;;;;;;;;;5155709;27;20659;-76
2023/12/01 13:42:56;;;;;;;17.85;8.70;;;;;;;;;;5155973;27;20555;-76
2023/12/01 13:45:23;;;;;;;14.85;7.60;;;;;;;;;;5156222;27;20472;-76
2023/12/01 13:47:49;;;;;;;15.00;7.93;;;;;;;;;;5155664;27;20082;-76
2023/12/01 13:50:16;;;;;;;13.70;6.40;;;;;;;;;;5155803;27;20081;-76
2023/12/01 13:52:42;;;;;;;14.10;8.10;;;;;;;;;;5155787;27;20131;-76
2023/12/01 13:55:09;;;;;;;18.58;8.65;;;;;;;;;;5155620;27;20112;-75
2023/12/01 13:57:38;;;;;;;18.38;8.30;;;;;;;;;;5155564;27;20043;-76
2023/12/01 14:00:06;;;;;;;16.20;7.55;;;;;;;;;;5156081;27;20062;-75
2023/12/01 14:02:32;;;;;;;16.40;7.78;;;;;;;;;;5155509;27;20505;-75
2023/12/01 14:04:59;;;;;;;15.20;7.05;;;;;;;;;;5155428;27;20052;-75
2023/12/01 14:07:26;;;;;;;16.30;8.32;;;;;;;;;;5155410;27;20058;-75
2023/12/01 14:09:52;;;;;;;16.15;8.35;;;;;;;;;;5154874;27;20577;-76
2023/12/01 14:12:19;;;;;;;14.77;7.88;;;;;;;;;;5155386;27;20100;-75
2023/12/01 14:14:45;;;;;;;17.17;8.23;;;;;;;;;;5155374;27;20142;-75
2023/12/01 14:17:12;;;;;;;21.08;8.73;;;;;;;;;;5155507;27;20487;-75
2023/12/01 14:19:38;;;;;;;15.80;7.78;;;;;;;;;;5155955;27;20126;-76
2023/12/01 14:22:05;;;;;;;15.70;7.25;;;;;;;;;;5158980;27;20051;-75
2023/12/01 14:24:31;;;;;;;17.17;8.77;;;;;;;;;;5156093;27;20067;-75